Time;durP1;ratioP1;P1;durP2;ratioP2;P2;SDS_P1;SDS_P2;PMS_P1;PMS_P2;Temp;Humidity;BMP_temperature;BMP_pressure;BME280_temperature;BME280_humidity;BME280_pressure;Samples;Min_cycle;Max_cycle;Signal;HPM_P1;HPM_P2
2021/12/14 00:00:33;;;;;;;0.70;0.70;;;;;;;9.06;78.24;102155.44;5163011;28;20042;-87
2021/12/14 00:03:05;;;;;;;0.55;0.55;;;;;;;9.16;78.28;102153.75;5129252;28;20035;-87
2021/12/14 00:05:36;;;;;;;1.75;1.40;;;;;;;9.14;78.11;102158.94;5147088;28;20050;-86
2021/12/14 00:08:11;;;;;;;1.00;1.00;;;;;;;9.09;78.17;102160.69;5165877;28;20570;-87
2021/12/14 00:10:57;;;;;;;0.77;0.77;;;;;;;9.04;78.45;102158.94;5149584;28;20062;-86
2021/12/14 00:13:44;;;;;;;0.40;0.40;;;;;;;9.04;78.36;102174.66;5176955;28;20037;-87
2021/12/14 00:16:15;;;;;;;2.50;2.03;;;;;;;9.09;78.22;102173.78;5171372;28;20052;-86
2021/12/14 00:18:46;;;;;;;0.63;0.63;;;;;;;9.07;78.62;102165.06;5147013;28;20042;-87
2021/12/14 00:21:28;;;;;;;1.05;1.05;;;;;;;9.02;78.48;102176.38;5149035;28;20665;-87
2021/12/14 00:24:07;;;;;;;0.50;0.50;;;;;;;9.03;78.15;102176.41;5152105;28;20516;-87
2021/12/14 00:26:46;;;;;;;0.40;0.40;;;;;;;9.09;77.77;102168.56;5161840;28;20120;-87
2021/12/14 00:29:20;;;;;;;0.57;0.57;;;;;;;9.03;78.23;102168.53;5165488;28;20444;-87
2021/12/14 00:31:52;;;;;;;1.05;1.00;;;;;;;8.96;78.31;102164.16;5161391;28;20202;-87
2021/12/14 00:34:34;;;;;;;0.47;0.47;;;;;;;8.97;78.32;102165.88;5149825;28;20381;-87
2021/12/14 00:37:22;;;;;;;0.77;0.77;;;;;;;8.92;78.47;102165.00;5165736;28;20044;-87
2021/12/14 00:39:55;;;;;;;0.50;0.50;;;;;;;8.90;78.55;102156.28;5181367;28;20048;-87
2021/12/14 00:42:26;;;;;;;0.55;0.55;;;;;;;8.97;78.39;102152.78;5147474;28;20033;-87
2021/12/14 00:44:57;;;;;;;1.15;1.13;;;;;;;8.96;78.41;102157.19;5163645;28;20061;-85
2021/12/14 00:47:27;;;;;;;0.80;0.80;;;;;;;8.97;78.59;102152.78;5163921;28;20038;-87
2021/12/14 00:49:58;;;;;;;0.70;0.70;;;;;;;8.95;78.56;102151.94;5156725;28;20053;-86
2021/12/14 00:52:28;;;;;;;0.60;0.60;;;;;;;8.94;78.76;102150.19;5161559;28;20034;-87
2021/12/14 00:54:59;;;;;;;0.40;0.40;;;;;;;8.97;78.30;102144.94;5148623;28;20116;-87
2021/12/14 00:57:31;;;;;;;0.60;0.60;;;;;;;9.03;78.31;102150.22;5134148;28;20025;-86
2021/12/14 01:00:06;;;;;;;0.40;0.40;;;;;;;8.96;78.56;102145.84;5142522;28;20042;-87
2021/12/14 01:02:38;;;;;;;0.40;0.40;;;;;;;9.05;78.15;102152.84;5142404;28;20030;-87
2021/12/14 01:05:25;;;;;;;0.50;0.50;;;;;;;9.03;77.86;102152.84;5143649;28;20121;-87
2021/12/14 01:07:56;;;;;;;0.60;0.60;;;;;;;8.90;78.04;102151.03;5161175;28;20054;-87
2021/12/14 01:10:41;;;;;;;0.60;0.60;;;;;;;8.84;77.54;102156.25;5161655;28;20038;-87
2021/12/14 01:13:12;;;;;;;1.02;1.02;;;;;;;8.82;78.26;102148.41;5144372;28;20026;-86
2021/12/14 01:21:44;;;;;;;0.40;0.40;;;;;;;8.85;77.41;102121.38;5179368;28;20049;-87
2021/12/14 01:24:34;;;;;;;1.38;0.70;;;;;;;8.87;78.04;102137.97;5151586;28;20206;-86
2021/12/14 01:27:12;;;;;;;0.70;0.70;;;;;;;8.86;77.58;102149.31;5165160;28;20038;-87
2021/12/14 01:29:44;;;;;;;0.90;0.90;;;;;;;8.79;78.05;102159.75;5164986;28;20045;-87
2021/12/14 01:32:15;;;;;;;0.50;0.50;;;;;;;8.82;77.10;102169.34;5163916;28;20783;-87
2021/12/14 01:34:46;;;;;;;1.08;0.93;;;;;;;8.71;78.00;102176.28;5179643;28;20042;-87
2021/12/14 01:37:21;;;;;;;1.45;1.15;;;;;;;8.82;77.52;102170.22;5165980;28;20029;-87
2021/12/14 01:40:06;;;;;;;0.68;0.68;;;;;;;8.81;78.34;102158.00;5178827;28;20038;-86
2021/12/14 01:42:40;;;;;;;0.70;0.70;;;;;;;8.75;77.93;102157.97;5177023;28;20029;-87
2021/12/14 01:45:17;;;;;;;0.50;0.50;;;;;;;8.64;77.96;102157.94;5184346;28;20040;-87
2021/12/14 01:47:51;;;;;;;0.50;0.50;;;;;;;8.59;78.10;102164.03;5153322;28;20500;-87
2021/12/14 01:50:31;;;;;;;2.53;1.98;;;;;;;8.58;77.83;102168.38;5143507;28;20049;-87
2021/12/14 01:53:03;;;;;;;1.92;1.15;;;;;;;8.63;78.28;102173.66;5160064;28;20485;-87
2021/12/14 01:55:36;;;;;;;1.55;1.45;;;;;;;8.49;78.57;102177.06;5145458;28;20423;-87
2021/12/14 01:58:09;;;;;;;1.25;1.25;;;;;;;8.42;78.96;102175.25;5164715;28;20108;-87
2021/12/14 02:00:44;;;;;;;0.63;0.63;;;;;;;8.57;78.61;102174.50;5170855;28;20070;-86
2021/12/14 02:03:17;;;;;;;0.57;0.57;;;;;;;8.53;78.56;102166.63;5173983;28;20042;-86
2021/12/14 02:05:50;;;;;;;0.93;0.93;;;;;;;8.49;78.93;102135.19;5155131;28;20046;-85
2021/12/14 02:08:24;;;;;;;0.45;0.45;;;;;;;8.50;78.77;102144.81;5188033;28;20049;-86
2021/12/14 02:10:57;;;;;;;0.80;0.80;;;;;;;8.49;78.40;102150.91;5147940;28;20506;-87
2021/12/14 02:13:37;;;;;;;1.35;1.27;;;;;;;8.38;78.72;102162.13;5132257;28;20543;-87
2021/12/14 02:16:10;;;;;;;1.08;0.70;;;;;;;8.27;78.63;102159.47;5167202;28;20066;-87
2021/12/14 02:18:47;;;;;;;0.70;0.70;;;;;;;8.45;78.85;102161.31;5149098;28;20588;-86
2021/12/14 02:21:18;;;;;;;0.60;0.60;;;;;;;8.40;78.63;102171.75;5164541;28;20582;-87
2021/12/14 02:23:52;;;;;;;1.52;1.42;;;;;;;8.37;78.95;102156.06;5181216;28;20428;-86
2021/12/14 02:26:29;;;;;;;0.80;0.80;;;;;;;8.48;78.90;102158.75;5174681;28;20025;-87
2021/12/14 02:29:03;;;;;;;2.63;1.70;;;;;;;8.50;78.93;102146.56;5162009;28;20142;-86
2021/12/14 02:31:38;;;;;;;1.20;0.85;;;;;;;8.30;79.43;102135.97;5166674;28;20037;-87
2021/12/14 02:34:08;;;;;;;0.60;0.60;;;;;;;8.41;79.23;102120.31;5150929;28;20574;-87
2021/12/14 02:36:43;;;;;;;0.43;0.43;;;;;;;8.52;78.96;102120.41;5156400;28;20062;-87
2021/12/14 02:39:46;;;;;;;0.98;0.98;;;;;;;8.56;78.85;102103.81;5175958;28;20042;-87
2021/12/14 02:42:21;;;;;;;1.83;1.73;;;;;;;8.57;78.51;102095.09;5168109;28;20034;-86
2021/12/14 02:44:54;;;;;;;1.63;1.17;;;;;;;8.60;78.80;102096.00;5159082;28;20042;-87
2021/12/14 02:47:25;;;;;;;;;;;;;;;8.62;79.05;102103.88;5190959;28;20416;-87
2021/12/14 02:49:56;;;;;;;0.60;0.60;;;;;;;8.50;78.43;102089.88;5154667;28;19925;-86
2021/12/14 02:52:34;;;;;;;1.00;0.98;;;;;;;8.55;78.54;102096.88;5188552;28;20167;-87
2021/12/14 02:55:11;;;;;;;0.75;0.75;;;;;;;8.42;78.83;102099.41;5153271;28;20035;-86
2021/12/14 02:57:46;;;;;;;1.70;1.60;;;;;;;8.59;78.72;102103.84;5151392;28;20085;-87
2021/12/14 03:00:48;;;;;;;1.10;1.10;;;;;;;8.43;78.71;102105.50;5171695;28;20060;-87
2021/12/14 03:03:19;;;;;;;0.93;0.93;;;;;;;8.40;78.79;102111.59;5162053;28;20045;-87
2021/12/14 03:05:50;;;;;;;1.00;1.00;;;;;;;8.52;78.47;102107.31;5151835;28;20046;-86
2021/12/14 03:08:27;;;;;;;1.27;1.17;;;;;;;8.48;78.63;102101.19;5156587;28;20460;-86
2021/12/14 03:11:12;;;;;;;4.72;2.20;;;;;;;8.34;78.72;102098.47;5161207;28;20397;-86
2021/12/14 03:13:48;;;;;;;2.55;2.35;;;;;;;8.35;79.19;102085.41;5151231;28;20034;-86
2021/12/14 03:16:26;;;;;;;1.83;1.73;;;;;;;8.43;79.15;102090.69;5168730;28;20014;-86
2021/12/14 03:18:59;;;;;;;1.83;1.58;;;;;;;8.46;79.18;102075.00;5188206;28;20062;-86
2021/12/14 03:21:32;;;;;;;2.03;1.92;;;;;;;8.50;79.09;102068.94;5169734;28;20030;-86
2021/12/14 03:24:11;;;;;;;1.50;1.30;;;;;;;8.58;79.16;102075.94;5165185;28;20085;-86
2021/12/14 03:26:46;;;;;;;1.35;1.30;;;;;;;8.51;78.88;102067.22;5167912;28;20064;-86
2021/12/14 03:29:22;;;;;;;2.20;1.58;;;;;;;8.59;79.04;102061.97;5155216;28;20041;-87
2021/12/14 03:31:56;;;;;;;0.90;0.90;;;;;;;8.60;78.53;102067.22;5145270;28;20404;-86
2021/12/14 03:34:37;;;;;;;1.35;1.02;;;;;;;8.31;79.13;102075.81;5168721;28;20058;-85
2021/12/14 03:37:11;;;;;;;2.55;0.95;;;;;;;8.41;79.45;102068.00;5169094;28;20488;-86
2021/12/14 03:39:50;;;;;;;1.65;1.08;;;;;;;8.44;79.25;102066.28;5179304;28;20508;-86
2021/12/14 03:42:36;;;;;;;0.75;0.75;;;;;;;8.44;79.16;102068.88;5149945;28;20033;-86
2021/12/14 03:45:19;;;;;;;3.67;0.90;;;;;;;8.30;79.31;102065.34;5146477;28;20042;-86
2021/12/14 03:47:53;;;;;;;0.80;0.80;;;;;;;8.28;79.28;102074.94;5149529;28;20034;-86
2021/12/14 03:50:41;;;;;;;0.82;0.82;;;;;;;8.42;79.18;102081.09;5152994;28;20224;-86
2021/12/14 03:53:13;;;;;;;2.15;2.05;;;;;;;8.40;79.02;102095.88;5153660;28;20105;-87
2021/12/14 03:55:49;;;;;;;2.08;1.98;;;;;;;8.47;78.98;102091.59;5166344;28;20102;-87
2021/12/14 03:58:25;;;;;;;0.75;0.75;;;;;;;8.35;78.68;102084.53;5173040;28;20641;-86
2021/12/14 04:00:59;;;;;;;4.97;2.47;;;;;;;8.40;78.91;102092.41;5163216;28;20046;-86
2021/12/14 04:03:30;;;;;;;1.90;1.65;;;;;;;8.39;79.32;102083.69;5163301;28;20038;-86
2021/12/14 04:06:02;;;;;;;0.95;0.95;;;;;;;8.49;78.92;102085.50;5168078;28;20132;-86
2021/12/14 04:08:34;;;;;;;2.67;1.45;;;;;;;8.48;79.23;102094.22;5187039;28;20033;-86
2021/12/14 04:11:07;;;;;;;2.08;1.98;;;;;;;8.55;79.01;102091.63;5163840;28;20500;-86
2021/12/14 04:13:44;;;;;;;0.88;0.88;;;;;;;8.41;79.83;102095.03;5153249;28;20036;-85
2021/12/14 04:16:21;;;;;;;1.70;1.60;;;;;;;8.38;80.10;102095.03;5138109;28;20037;-86
2021/12/14 04:18:55;;;;;;;0.82;0.82;;;;;;;8.31;80.02;102094.13;5145430;28;20116;-87
2021/12/14 04:21:25;;;;;;;;;;;;;;;8.40;79.61;102088.03;5152338;28;20034;-86
2021/12/14 04:23:56;;;;;;;0.85;0.85;;;;;;;8.24;80.88;102086.22;5137052;28;19924;-87
2021/12/14 04:26:27;;;;;;;1.33;1.23;;;;;;;8.38;80.13;102086.28;5153614;28;20042;-86
2021/12/14 04:29:00;;;;;;;2.83;1.27;;;;;;;8.26;81.11;102077.56;5150159;28;20051;-86
2021/12/14 04:31:36;;;;;;;0.77;0.77;;;;;;;8.28;80.61;102080.16;5185437;28;20041;-86
2021/12/14 04:34:07;;;;;;;0.65;0.65;;;;;;;8.30;80.62;102083.66;5167442;28;20100;-86
2021/12/14 04:36:40;;;;;;;0.50;0.50;;;;;;;8.24;81.67;102091.47;5169647;28;20053;-86
2021/12/14 04:53:45;;;;;;;5.82;2.15;;;;;;;8.46;80.17;102114.25;5155004;28;20023;-86
2021/12/14 04:56:23;;;;;;;1.13;1.10;;;;;;;8.43;80.73;102113.38;5161754;28;20319;-85
2021/12/14 04:59:05;;;;;;;1.33;1.10;;;;;;;8.50;80.43;102118.63;5164555;28;20452;-86
2021/12/14 05:01:42;;;;;;;1.23;1.10;;;;;;;8.44;80.62;102113.34;5150226;28;20032;-86
2021/12/14 05:04:18;;;;;;;1.08;1.08;;;;;;;8.36;80.84;102107.22;5146788;28;20113;-86
2021/12/14 05:06:55;;;;;;;2.22;2.03;;;;;;;8.54;80.22;102116.03;5174547;28;20562;-86
2021/12/14 05:09:30;;;;;;;3.05;2.53;;;;;;;8.39;81.01;102115.06;5162089;28;20042;-86
2021/12/14 05:12:07;;;;;;;1.77;1.63;;;;;;;8.35;81.33;102115.94;5179420;28;20078;-85
2021/12/14 05:14:41;;;;;;;1.27;1.02;;;;;;;8.28;81.91;102116.78;5162547;28;20038;-85
2021/12/14 05:17:20;;;;;;;1.70;1.52;;;;;;;8.34;81.45;102115.06;5150214;28;20535;-86
2021/12/14 05:19:52;;;;;;;2.40;1.58;;;;;;;8.38;80.97;102117.69;5162514;28;20539;-86
2021/12/14 05:22:26;;;;;;;1.75;1.65;;;;;;;8.48;80.71;102122.97;5143361;28;20298;-86
2021/12/14 05:25:03;;;;;;;1.88;1.48;;;;;;;8.33;81.47;102112.44;5169761;28;20034;-86
2021/12/14 05:27:38;;;;;;;0.73;0.73;;;;;;;8.31;81.85;102114.16;5145954;28;20042;-86
2021/12/14 05:30:25;;;;;;;1.13;1.13;;;;;;;8.18;82.24;102114.09;5150876;28;20108;-86
2021/12/14 05:33:17;;;;;;;1.38;1.33;;;;;;;8.31;81.46;102108.91;5181634;28;20030;-86
2021/12/14 05:35:50;;;;;;;0.75;0.75;;;;;;;8.33;81.19;102117.66;5165302;28;20117;-86
2021/12/14 05:38:37;;;;;;;1.10;1.10;;;;;;;8.29;81.64;102116.78;5151141;28;20576;-86
2021/12/14 05:43:06;;;;;;;2.53;1.45;;;;;;;8.39;80.91;102122.03;5164608;28;20042;-86
2021/12/14 05:44:05;;;;;;;0.90;0.90;;;;;;;8.31;82.02;102108.91;5172703;28;20023;-86
2021/12/14 05:46:36;;;;;;;1.20;1.20;;;;;;;8.26;81.93;102110.66;5176492;28;20038;-86
2021/12/14 05:49:09;;;;;;;2.08;1.90;;;;;;;8.23;82.28;102100.16;5186959;28;20059;-87
2021/12/14 05:51:39;;;;;;;0.55;0.55;;;;;;;8.28;81.94;102098.47;5165358;28;20029;-87
2021/12/14 05:54:10;;;;;;;0.95;0.95;;;;;;;8.15;82.72;102092.31;5168834;28;20397;-86
2021/12/14 05:56:41;;;;;;;0.68;0.68;;;;;;;8.12;82.83;102087.94;5152806;28;20041;-86
2021/12/14 05:59:15;;;;;;;2.47;1.58;;;;;;;8.07;82.74;102094.88;5162241;28;20057;-86
2021/12/14 06:01:47;;;;;;;2.60;2.33;;;;;;;8.11;83.24;102091.41;5159183;28;20026;-86
2021/12/14 06:04:19;;;;;;;1.63;1.38;;;;;;;8.07;83.45;102089.63;5183610;28;20132;-86
2021/12/14 06:06:52;;;;;;;1.58;1.50;;;;;;;8.05;83.03;102094.00;5148336;28;20026;-85
2021/12/14 06:09:30;;;;;;;0.93;0.90;;;;;;;7.98;83.43;102090.47;5168864;28;20038;-86
2021/12/14 06:12:07;;;;;;;1.67;1.58;;;;;;;7.83;83.61;102091.25;5164095;28;20031;-86
2021/12/14 06:14:43;;;;;;;1.85;1.02;;;;;;;7.76;84.10;102091.22;5153593;28;20474;-86
2021/12/14 06:17:13;;;;;;;0.50;0.50;;;;;;;7.91;83.25;102093.03;5166003;28;20026;-86
2021/12/14 06:19:50;;;;;;;1.83;1.73;;;;;;;8.05;82.97;102099.22;5181164;28;20436;-86
2021/12/14 06:22:22;;;;;;;1.10;1.10;;;;;;;8.08;82.22;102107.06;5146349;28;20587;-86
2021/12/14 06:25:00;;;;;;;0.68;0.68;;;;;;;8.14;82.22;102101.88;5143117;28;20182;-87
2021/12/14 06:27:32;;;;;;;1.48;1.33;;;;;;;8.01;83.22;102107.91;5151260;28;20096;-86
2021/12/14 06:30:09;;;;;;;0.63;0.63;;;;;;;8.05;82.88;102107.06;5149847;28;20196;-85
2021/12/14 06:32:53;;;;;;;1.30;1.25;;;;;;;8.08;82.65;102114.91;5162804;28;20065;-86
2021/12/14 06:35:28;;;;;;;;;;;;;;;8.17;82.34;102128.03;5166045;28;20061;-86
2021/12/14 06:40:31;;;;;;;;;;;;;;;7.95;83.07;102118.34;5163284;28;20050;-86
2021/12/14 06:43:14;;;;;;;2.35;2.00;;;;;;;7.80;83.54;102119.09;5161131;28;19985;-83
2021/12/14 06:45:55;;;;;;;0.70;0.70;;;;;;;7.77;83.80;102116.47;5164650;28;20104;-86
2021/12/14 06:48:32;;;;;;;1.55;1.45;;;;;;;7.77;84.29;102117.34;5164854;28;20141;-85
2021/12/14 06:51:13;;;;;;;0.70;0.70;;;;;;;7.82;83.78;102115.63;5163602;28;20031;-85
2021/12/14 06:53:49;;;;;;;0.40;0.40;;;;;;;7.75;83.74;102116.44;5179167;28;20062;-84
2021/12/14 06:56:26;;;;;;;1.75;0.80;;;;;;;7.78;83.75;102126.03;5148015;28;20029;-84
2021/12/14 06:59:06;;;;;;;0.70;0.70;;;;;;;7.85;83.57;102130.47;5178888;28;20049;-84
2021/12/14 07:01:39;;;;;;;1.17;1.15;;;;;;;7.80;83.35;102132.16;5164880;28;20053;-86
2021/12/14 07:04:15;;;;;;;1.15;1.00;;;;;;;7.84;83.13;102132.19;5166034;28;20071;-85
2021/12/14 07:06:52;;;;;;;0.77;0.77;;;;;;;7.87;82.80;102121.78;5180215;28;20045;-85
2021/12/14 07:09:27;;;;;;;0.98;0.98;;;;;;;7.99;82.35;102138.38;5135620;28;20088;-85
2021/12/14 07:12:09;;;;;;;5.43;2.50;;;;;;;7.99;82.50;102143.59;5160570;28;20061;-84
2021/12/14 07:14:42;;;;;;;1.00;1.00;;;;;;;8.07;81.79;102146.28;5172202;28;20056;-86
2021/12/14 07:17:18;;;;;;;0.93;0.93;;;;;;;7.94;82.36;102150.56;5184166;28;20037;-86
2021/12/14 07:19:55;;;;;;;1.15;1.15;;;;;;;7.97;82.32;102153.19;5145986;28;20050;-85
2021/12/14 07:22:27;;;;;;;0.88;0.88;;;;;;;7.86;82.58;102160.94;5164351;28;20044;-86
2021/12/14 07:25:12;;;;;;;0.80;0.80;;;;;;;8.00;81.96;102161.03;5150202;28;20320;-85
2021/12/14 07:27:47;;;;;;;9.02;2.33;;;;;;;7.85;82.52;102148.75;5149355;28;20080;-85
2021/12/14 07:30:33;;;;;;;1.15;1.05;;;;;;;8.08;81.91;102145.44;5160293;28;20049;-85
2021/12/14 07:33:12;;;;;;;0.90;0.90;;;;;;;7.91;82.03;102155.75;5153081;28;20037;-85
2021/12/14 07:35:49;;;;;;;1.40;1.30;;;;;;;7.94;82.40;102161.00;5174369;28;20052;-85
2021/12/14 07:38:32;;;;;;;0.90;0.90;;;;;;;7.84;82.37;102160.94;5166866;28;20038;-85
2021/12/14 07:41:12;;;;;;;1.13;1.13;;;;;;;7.78;82.91;102171.34;5177964;28;20124;-85
2021/12/14 07:43:49;;;;;;;0.68;0.68;;;;;;;7.90;82.19;102174.91;5179219;28;20062;-85
2021/12/14 07:46:38;;;;;;;1.20;1.13;;;;;;;8.00;81.71;102192.41;5163488;28;20029;-86
2021/12/14 07:49:33;;;;;;;0.85;0.85;;;;;;;7.93;81.87;102196.75;5162786;28;20037;-86
2021/12/14 07:52:30;;;;;;;0.93;0.93;;;;;;;8.02;81.80;102195.91;5145661;28;20126;-85
2021/12/14 07:55:24;;;;;;;0.90;0.90;;;;;;;8.00;81.61;102201.16;5148056;28;20050;-85
2021/12/14 07:57:54;;;;;;;0.40;0.40;;;;;;;7.94;81.81;102206.31;5166518;28;20042;-86
2021/12/14 08:00:29;;;;;;;0.55;0.55;;;;;;;7.83;82.33;102215.81;5162747;28;20057;-85
2021/12/14 08:03:01;;;;;;;0.80;0.80;;;;;;;7.77;82.94;102215.78;5131359;28;20030;-87
2021/12/14 08:05:38;;;;;;;1.17;1.13;;;;;;;7.95;81.79;102221.13;5151395;28;20556;-86
2021/12/14 08:08:31;;;;;;;0.85;0.85;;;;;;;7.93;81.89;102224.59;5166414;28;20125;-87
2021/12/14 08:11:28;;;;;;;1.75;1.65;;;;;;;8.04;81.59;102233.41;5176401;28;20062;-86
2021/12/14 08:14:18;;;;;;;1.63;1.52;;;;;;;8.13;81.31;102224.75;5126413;28;20110;-86
2021/12/14 08:16:57;;;;;;;0.55;0.55;;;;;;;7.98;81.63;102230.72;5165010;28;20022;-86
2021/12/14 08:19:39;;;;;;;1.77;1.65;;;;;;;7.87;81.60;102234.16;5158849;28;20115;-85
2021/12/14 08:22:29;;;;;;;0.70;0.70;;;;;;;7.92;81.68;102231.56;5163833;28;20045;-86
2021/12/14 08:25:01;;;;;;;1.38;1.30;;;;;;;8.04;81.49;102225.56;5133520;28;20088;-85
2021/12/14 08:27:32;;;;;;;0.90;0.90;;;;;;;7.95;81.76;102228.09;5165420;28;20487;-86
2021/12/14 08:30:07;;;;;;;27.58;2.10;;;;;;;7.94;81.29;102228.97;5165512;28;20042;-85
2021/12/14 08:32:39;;;;;;;0.95;0.95;;;;;;;8.06;81.43;102229.03;5175847;28;20022;-85
2021/12/14 08:35:13;;;;;;;1.00;0.90;;;;;;;8.08;81.16;102243.00;5160234;28;20034;-86
2021/12/14 08:37:56;;;;;;;1.27;1.20;;;;;;;8.00;81.13;102244.69;5150742;28;20041;-85
2021/12/14 08:40:38;;;;;;;0.95;0.95;;;;;;;8.03;81.59;102244.72;5168110;28;20100;-85
2021/12/14 08:43:14;;;;;;;1.00;0.80;;;;;;;7.99;81.55;102240.31;5168366;28;20033;-86
2021/12/14 08:45:58;;;;;;;1.77;1.45;;;;;;;8.11;81.20;102252.59;5152342;28;20088;-85
2021/12/14 08:48:40;;;;;;;1.42;1.23;;;;;;;7.90;81.19;102240.25;5182292;28;20324;-86
2021/12/14 08:51:35;;;;;;;0.60;0.60;;;;;;;7.86;81.74;102249.78;5160626;28;20041;-86
2021/12/14 08:54:05;;;;;;;0.65;0.65;;;;;;;7.85;81.86;102242.84;5164901;28;20047;-86
2021/12/14 08:56:42;;;;;;;1.40;1.30;;;;;;;7.96;81.85;102230.72;5164806;28;20048;-85
2021/12/14 08:59:12;;;;;;;0.60;0.60;;;;;;;7.93;81.75;102232.44;5151750;28;20111;-86
2021/12/14 09:01:44;;;;;;;2.75;1.23;;;;;;;7.99;81.61;102235.09;5165753;28;20105;-87
2021/12/14 09:04:19;;;;;;;0.52;0.52;;;;;;;7.96;81.69;102237.69;5165863;28;20100;-86
2021/12/14 09:06:53;;;;;;;0.82;0.82;;;;;;;7.92;81.57;102225.44;5164788;28;20034;-87
2021/12/14 09:09:24;;;;;;;1.58;1.48;;;;;;;8.10;81.17;102225.59;5169052;28;20100;-86
2021/12/14 09:12:13;;;;;;;0.77;0.77;;;;;;;8.07;81.15;102236.03;5160367;28;20034;-86
2021/12/14 09:14:46;;;;;;;1.15;1.05;;;;;;;8.04;81.08;102230.78;5151870;28;20050;-85
2021/12/14 09:17:19;;;;;;;0.68;0.68;;;;;;;7.91;81.35;102218.47;5168305;28;20034;-86
2021/12/14 09:19:57;;;;;;;1.20;1.20;;;;;;;7.93;81.31;102224.59;5160957;28;20034;-86
2021/12/14 09:22:33;;;;;;;0.82;0.82;;;;;;;7.92;81.45;102228.06;5166423;28;20036;-86
2021/12/14 09:25:05;;;;;;;1.17;1.10;;;;;;;7.81;82.03;102234.06;5159485;28;20046;-86
2021/12/14 09:27:36;;;;;;;0.73;0.73;;;;;;;7.86;82.27;102237.63;5175760;28;20076;-86
2021/12/14 09:30:10;;;;;;;0.93;0.93;;;;;;;7.83;82.06;102236.72;5165340;28;20042;-86
2021/12/14 09:32:42;;;;;;;0.68;0.68;;;;;;;7.92;82.12;102235.91;5166573;28;20088;-86
2021/12/14 09:35:17;;;;;;;0.60;0.60;;;;;;;7.90;81.97;102237.63;5149813;28;20522;-86
2021/12/14 09:37:50;;;;;;;0.63;0.63;;;;;;;7.84;82.10;102234.09;5149721;28;20507;-86
2021/12/14 09:40:27;;;;;;;1.33;1.30;;;;;;;7.75;82.07;102239.25;5129098;28;20038;-86
2021/12/14 09:42:58;;;;;;;0.52;0.52;;;;;;;7.75;82.41;102241.88;5180343;28;20037;-86
2021/12/14 09:45:34;;;;;;;1.83;1.73;;;;;;;7.74;82.36;102242.72;5145107;28;20505;-86
2021/12/14 09:48:05;;;;;;;2.28;1.20;;;;;;;7.79;82.39;102240.16;5150693;28;20034;-86
2021/12/14 09:50:36;;;;;;;1.40;1.30;;;;;;;7.70;82.35;102247.03;5164137;28;20469;-86
2021/12/14 09:53:10;;;;;;;1.45;1.23;;;;;;;7.76;82.23;102245.38;5179216;28;20041;-86
2021/12/14 09:55:44;;;;;;;0.57;0.57;;;;;;;7.77;82.25;102241.91;5148959;28;20512;-86
2021/12/14 09:58:23;;;;;;;1.00;1.00;;;;;;;7.82;81.90;102248.91;5164128;28;20120;-86
2021/12/14 10:01:12;;;;;;;1.08;1.05;;;;;;;7.78;81.94;102246.22;5140887;28;20046;-86
2021/12/14 10:03:47;;;;;;;1.00;1.00;;;;;;;7.82;82.22;102241.06;5149387;28;20030;-86
2021/12/14 10:06:24;;;;;;;1.75;1.65;;;;;;;7.79;82.64;102245.38;5150236;28;20049;-86
2021/12/14 10:09:02;;;;;;;0.95;0.95;;;;;;;7.67;82.42;102246.16;5145471;28;20077;-86
2021/12/14 10:12:02;;;;;;;;;;;;;;;;;;;;;
2021/12/14 10:14:19;;;;;;;0.95;0.95;;;;;;;7.83;81.70;102253.25;5170561;28;20104;-86
2021/12/14 10:16:50;;;;;;;1.83;1.73;;;;;;;7.89;81.85;102249.84;5171495;28;20034;-86
2021/12/14 10:19:24;;;;;;;0.70;0.70;;;;;;;7.83;82.20;102247.19;5169052;28;20117;-86
2021/12/14 10:22:01;;;;;;;1.20;1.17;;;;;;;7.75;82.22;102244.47;5159809;28;20382;-86
2021/12/14 10:24:33;;;;;;;0.98;0.90;;;;;;;7.82;81.78;102250.66;5151971;28;20492;-86
2021/12/14 10:27:11;;;;;;;2.95;0.95;;;;;;;7.87;82.33;102268.13;5186346;28;20030;-86
2021/12/14 10:29:43;;;;;;;0.57;0.57;;;;;;;7.83;82.00;102258.50;5148009;28;20128;-86
2021/12/14 10:32:18;;;;;;;1.38;1.35;;;;;;;7.91;82.03;102258.56;5161715;28;20048;-86
2021/12/14 10:34:54;;;;;;;1.55;1.45;;;;;;;7.76;81.88;102256.69;5147476;28;20080;-86
2021/12/14 10:37:51;;;;;;;0.80;0.80;;;;;;;7.81;82.06;102249.75;5150569;28;20061;-86
2021/12/14 10:43:24;;;;;;;1.63;1.52;;;;;;;7.76;82.65;102245.38;5185072;28;20027;-86
2021/12/14 10:45:59;;;;;;;1.45;1.35;;;;;;;7.84;82.52;102251.53;5161809;28;20287;-86
2021/12/14 10:48:34;;;;;;;0.80;0.80;;;;;;;7.78;82.49;102254.97;5175463;28;20030;-86
2021/12/14 10:51:09;;;;;;;0.73;0.73;;;;;;;7.80;82.20;102257.59;5143652;28;20030;-86
2021/12/14 10:53:42;;;;;;;1.85;1.75;;;;;;;7.85;82.20;102259.38;5129220;28;20034;-86
2021/12/14 10:56:16;;;;;;;;;;;;;;;7.89;82.33;102255.06;5165091;28;20029;-86
2021/12/14 10:58:49;;;;;;;4.13;2.05;;;;;;;7.91;81.78;102255.97;5134078;28;20386;-86
2021/12/14 11:01:27;;;;;;;1.13;1.13;;;;;;;7.97;81.93;102253.38;5167840;28;20080;-86
2021/12/14 11:04:10;;;;;;;0.98;0.88;;;;;;;7.87;82.24;102254.16;5165094;28;20222;-86
2021/12/14 11:06:45;;;;;;;2.13;1.33;;;;;;;7.95;82.27;102242.03;5168391;28;20057;-85
2021/12/14 11:09:45;;;;;;;1.83;1.60;;;;;;;8.08;81.72;102239.53;5184239;28;20212;-86
2021/12/14 11:12:26;;;;;;;1.67;1.58;;;;;;;7.92;82.01;102235.91;5167935;28;20271;-87
2021/12/14 11:15:03;;;;;;;0.90;0.90;;;;;;;7.89;82.29;102231.53;5156783;28;20082;-86
2021/12/14 11:20:35;;;;;;;2.85;2.65;;;;;;;8.01;82.30;102236.88;5166497;28;20045;-87
2021/12/14 11:23:09;;;;;;;1.88;1.45;;;;;;;7.99;82.47;102217.69;5167576;28;20034;-87
2021/12/14 11:25:54;;;;;;;2.00;1.45;;;;;;;7.98;82.24;102220.28;5166151;28;20508;-86
2021/12/14 11:28:33;;;;;;;1.33;1.33;;;;;;;7.93;82.16;102225.50;5186658;28;20053;-87
2021/12/14 11:31:23;;;;;;;1.08;1.08;;;;;;;7.94;82.18;102219.38;5177875;28;20066;-87
2021/12/14 11:33:56;;;;;;;1.38;1.35;;;;;;;8.01;82.38;102222.91;5180361;28;20065;-86
2021/12/14 11:36:38;;;;;;;0.88;0.88;;;;;;;8.04;82.35;102215.13;5165582;28;20315;-86
2021/12/14 11:39:24;;;;;;;0.90;0.90;;;;;;;8.00;82.56;102213.31;5160954;28;20033;-85
2021/12/14 11:41:58;;;;;;;1.13;1.13;;;;;;;7.93;82.62;102224.59;5158810;28;20038;-85
2021/12/14 11:44:35;;;;;;;2.00;1.55;;;;;;;7.99;82.26;102211.56;5181588;28;20516;-86
2021/12/14 11:48:01;;;;;;;1.80;1.70;;;;;;;8.05;82.25;102219.47;5165021;28;20070;-86
2021/12/14 11:50:22;;;;;;;1.33;1.27;;;;;;;8.05;82.02;102216.88;5153620;28;20034;-86
2021/12/14 11:52:56;;;;;;;1.45;1.35;;;;;;;8.10;82.31;102219.50;5160029;28;20026;-86
2021/12/14 11:55:31;;;;;;;1.08;1.08;;;;;;;8.12;82.09;102213.44;5179811;28;20523;-85
2021/12/14 11:58:07;;;;;;;0.88;0.88;;;;;;;8.09;82.10;102221.25;5165950;28;20413;-85
2021/12/14 12:00:55;;;;;;;1.08;1.00;;;;;;;8.12;82.30;102212.53;5163889;28;20053;-85
2021/12/14 12:03:37;;;;;;;0.50;0.50;;;;;;;8.11;82.35;102221.25;5155105;28;20191;-85
2021/12/14 12:06:42;;;;;;;4.38;2.13;;;;;;;8.15;82.28;102215.19;5163480;28;20380;-84
2021/12/14 12:09:32;;;;;;;0.95;0.95;;;;;;;8.23;81.97;102210.88;5166495;28;20042;-86
2021/12/14 12:12:03;;;;;;;1.35;1.25;;;;;;;8.31;81.81;102208.28;5146180;28;20492;-85
2021/12/14 12:14:36;;;;;;;1.33;1.10;;;;;;;8.17;82.11;102205.63;5143546;28;20078;-85
2021/12/14 12:17:28;;;;;;;1.70;1.60;;;;;;;8.13;82.43;102209.06;5151102;28;20050;-85
2021/12/14 12:20:13;;;;;;;1.30;1.30;;;;;;;8.13;82.56;102209.06;5148544;28;20049;-86
2021/12/14 12:22:51;;;;;;;2.63;1.67;;;;;;;8.13;82.91;102202.09;5149985;28;20041;-86
2021/12/14 12:25:32;;;;;;;1.10;1.10;;;;;;;8.15;82.43;102197.75;5167136;28;20113;-86
2021/12/14 12:28:16;;;;;;;37.42;2.95;;;;;;;8.15;82.32;102202.97;5154175;28;20030;-89
2021/12/14 12:30:54;;;;;;;1.67;1.55;;;;;;;8.22;82.21;102203.91;5166919;28;20668;-85
2021/12/14 12:33:27;;;;;;;1.00;1.00;;;;;;;8.22;81.97;102188.22;5154209;28;20054;-85
2021/12/14 12:36:03;;;;;;;1.10;1.02;;;;;;;8.18;82.22;102197.78;5165819;28;20076;-86
2021/12/14 12:38:34;;;;;;;0.75;0.75;;;;;;;8.23;82.15;102197.81;5146177;28;20504;-86
2021/12/14 12:41:17;;;;;;;1.10;1.10;;;;;;;8.21;81.94;102199.53;5148496;28;20097;-85
2021/12/14 12:43:51;;;;;;;;;;;;;;;8.22;82.18;102200.41;5166255;28;20031;-87
2021/12/14 12:46:23;;;;;;;2.20;2.05;;;;;;;8.31;82.02;102195.22;5168074;28;19914;-85
2021/12/14 12:49:04;;;;;;;1.45;1.35;;;;;;;8.31;81.82;102195.22;5149931;28;20050;-84
2021/12/14 12:51:58;;;;;;;1.90;1.65;;;;;;;8.29;82.04;102191.75;5178685;28;20038;-86